createdAt,value
2022-08-20T00:00:05.381Z,20.5
2022-08-20T00:01:05.977Z,20.5
2022-08-20T00:02:06.604Z,20.4
2022-08-20T00:03:07.172Z,20.4
2022-08-20T00:04:07.772Z,20.4
2022-08-20T00:05:09.363Z,20.3
2022-08-20T00:06:09.971Z,20.4
2022-08-20T00:07:10.562Z,20.3
2022-08-20T00:08:11.176Z,20.4
2022-08-20T00:09:11.773Z,20.3
2022-08-20T00:10:12.380Z,20.3
2022-08-20T00:11:12.969Z,20.3
2022-08-20T00:12:13.568Z,20.3
2022-08-20T00:13:14.165Z,20.3
2022-08-20T00:14:15.757Z,20.2
2022-08-20T00:15:16.353Z,20.3
2022-08-20T00:16:16.953Z,20.3
2022-08-20T00:17:17.549Z,20.3
2022-08-20T00:18:18.149Z,20.3
2022-08-20T00:19:18.746Z,20.2
2022-08-20T00:20:19.346Z,20.2
2022-08-20T00:21:19.944Z,20.3
2022-08-20T00:22:20.753Z,20.3
2022-08-20T00:23:21.349Z,20.3
2022-08-20T00:24:21.947Z,20.3
2022-08-20T00:25:22.547Z,20.3
2022-08-20T00:26:23.144Z,20.2
2022-08-20T00:27:23.743Z,20.3
2022-08-20T00:28:24.340Z,20.3
2022-08-20T00:29:24.942Z,20.2
2022-08-20T00:30:25.557Z,20.3
2022-08-20T00:31:26.164Z,20.3
2022-08-20T00:32:26.754Z,20.2
2022-08-20T00:33:27.371Z,20.2
2022-08-20T00:34:27.952Z,20.2
2022-08-20T00:35:28.553Z,20.1
2022-08-20T00:36:32.845Z,20.2
2022-08-20T00:37:30.739Z,20.2
2022-08-20T00:38:31.339Z,20.2
2022-08-20T00:39:31.972Z,20.1
2022-08-20T00:40:32.535Z,20.1
2022-08-20T00:41:33.133Z,20.2
2022-08-20T00:42:33.731Z,20.1
2022-08-20T00:43:34.332Z,20.2
2022-08-20T00:44:34.926Z,20.1
2022-08-20T00:45:35.526Z,20.1
2022-08-20T00:46:36.125Z,20.1
2022-08-20T00:47:36.724Z,20.2
2022-08-20T00:48:37.320Z,20.0
2022-08-20T00:49:37.917Z,20.1
2022-08-20T00:50:38.535Z,20.1
2022-08-20T00:51:39.133Z,20.1
2022-08-20T00:52:39.731Z,20.1
2022-08-20T00:53:41.323Z,20.0
2022-08-20T00:54:41.922Z,20.1
2022-08-20T00:55:42.539Z,20.1
2022-08-20T00:56:43.138Z,20.1
2022-08-20T00:57:58.903Z,20.2
2022-08-20T00:58:45.331Z,20.1
2022-08-20T00:59:45.929Z,20.2
2022-08-20T01:00:46.530Z,20.1
2022-08-20T01:01:56.205Z,20.1
2022-08-20T01:02:48.736Z,20.3
2022-08-20T01:03:49.334Z,20.1
2022-08-20T01:04:49.941Z,20.1
2022-08-20T01:05:50.554Z,20.2
2022-08-20T01:06:51.151Z,20.2
2022-08-20T01:07:51.778Z,20.0
2022-08-20T01:08:53.392Z,20.1
2022-08-20T01:09:59.051Z,20.1
2022-08-20T01:10:55.582Z,20.2
2022-08-20T01:11:56.181Z,20.2
2022-08-20T01:12:59.174Z,20.2
2022-08-20T01:13:58.376Z,20.2
2022-08-20T01:14:58.969Z,20.1
2022-08-20T01:15:59.568Z,20.2
2022-08-20T01:17:00.166Z,20.2
2022-08-20T01:18:00.765Z,20.2
2022-08-20T01:19:01.364Z,20.2
2022-08-20T01:20:01.966Z,20.2
2022-08-20T01:21:02.560Z,20.2
2022-08-20T01:22:03.173Z,20.2
2022-08-20T01:23:03.758Z,20.2
2022-08-20T01:24:04.357Z,20.2
2022-08-20T01:25:04.955Z,20.2
2022-08-20T01:26:05.554Z,20.2
2022-08-20T01:27:06.152Z,20.3
2022-08-20T01:28:06.769Z,20.1
2022-08-20T01:29:07.367Z,20.3
2022-08-20T01:30:07.965Z,20.3
2022-08-20T01:31:09.021Z,20.2
2022-08-20T01:32:09.619Z,20.3
2022-08-20T01:33:10.216Z,20.3
2022-08-20T01:34:10.834Z,20.3
2022-08-20T01:35:11.430Z,20.3
2022-08-20T01:36:12.831Z,20.2
2022-08-20T01:37:13.401Z,20.2
2022-08-20T01:38:14.001Z,20.2
2022-08-20T01:39:14.602Z,20.3
2022-08-20T01:40:15.288Z,20.2
2022-08-20T01:41:15.868Z,20.3
2022-08-20T01:42:16.466Z,20.2
2022-08-20T01:43:17.272Z,20.2
2022-08-20T01:44:18.735Z,20.1
2022-08-20T01:45:19.964Z,20.2
2022-08-20T01:46:21.559Z,20.2
2022-08-20T01:47:22.630Z,20.1
2022-08-20T01:48:23.227Z,20.2
2022-08-20T01:49:23.851Z,20.2
2022-08-20T01:50:24.449Z,20.2
2022-08-20T01:51:25.046Z,20.2
2022-08-20T01:52:25.645Z,20.2
2022-08-20T01:53:26.241Z,20.1
2022-08-20T01:54:26.839Z,20.1
2022-08-20T01:55:27.446Z,20.2
2022-08-20T01:56:28.057Z,20.2
2022-08-20T01:57:28.654Z,20.2
2022-08-20T01:58:29.253Z,20.2
2022-08-20T01:59:29.849Z,20.2
2022-08-20T02:00:30.448Z,20.2
2022-08-20T02:01:31.083Z,20.2
2022-08-20T02:02:32.638Z,20.1
2022-08-20T02:03:38.044Z,20.1
2022-08-20T02:04:34.828Z,20.2
2022-08-20T02:05:35.427Z,20.1
2022-08-20T02:06:36.026Z,20.1
2022-08-20T02:07:36.622Z,20.1
2022-08-20T02:08:37.221Z,20.2
2022-08-20T02:09:37.819Z,20.1
2022-08-20T02:10:38.415Z,20.1
2022-08-20T02:11:39.013Z,20.1
2022-08-20T02:12:39.613Z,20.0
2022-08-20T02:13:40.210Z,20.1
2022-08-20T02:14:40.808Z,20.1
2022-08-20T02:15:43.250Z,20.1
2022-08-20T02:16:42.996Z,20.0
2022-08-20T02:17:43.595Z,20.0
2022-08-20T02:18:44.195Z,20.0
2022-08-20T02:19:44.791Z,20.0
2022-08-20T02:20:45.409Z,20.0
2022-08-20T02:21:46.007Z,20.0
2022-08-20T02:22:49.800Z,20.0
2022-08-20T02:23:48.194Z,20.0
2022-08-20T02:24:48.792Z,20.0
2022-08-20T02:25:49.410Z,20.0
2022-08-20T02:26:50.022Z,19.9
2022-08-20T02:27:50.607Z,20.0
2022-08-20T02:28:51.207Z,19.9
2022-08-20T02:29:51.805Z,20.0
2022-08-20T02:30:52.403Z,19.9
2022-08-20T02:32:24.422Z,19.9
2022-08-20T02:32:56.286Z,19.9
2022-08-20T02:34:21.943Z,19.9
2022-08-20T02:34:57.795Z,19.9
2022-08-20T02:35:58.392Z,19.9
2022-08-20T02:36:58.990Z,20.0
2022-08-20T02:37:59.588Z,20.0
2022-08-20T02:39:00.186Z,19.9
2022-08-20T02:40:00.828Z,19.9
2022-08-20T02:41:01.483Z,19.9
2022-08-20T02:42:02.081Z,19.9
2022-08-20T02:43:02.677Z,19.9
2022-08-20T02:44:03.276Z,19.9
2022-08-20T02:45:03.875Z,19.8
2022-08-20T02:46:04.473Z,19.9
2022-08-20T02:47:05.073Z,19.8
2022-08-20T02:48:05.671Z,19.9
2022-08-20T02:49:06.272Z,19.9
2022-08-20T02:50:08.015Z,19.9
2022-08-20T02:51:08.460Z,19.9
2022-08-20T02:52:09.059Z,19.9
2022-08-20T02:53:09.658Z,19.9
2022-08-20T02:54:10.253Z,19.9
2022-08-20T02:55:10.850Z,19.8
2022-08-20T02:56:12.441Z,19.9
2022-08-20T02:57:13.039Z,19.9
2022-08-20T02:58:13.634Z,19.9
2022-08-20T02:59:19.054Z,19.9
2022-08-20T03:00:15.824Z,19.8
2022-08-20T03:01:16.467Z,19.9
2022-08-20T03:02:17.015Z,19.9
2022-08-20T03:03:17.613Z,19.9
2022-08-20T03:04:18.210Z,19.9
2022-08-20T03:05:18.810Z,19.8
2022-08-20T03:06:19.407Z,19.9
2022-08-20T03:07:20.005Z,19.9
2022-08-20T03:08:20.602Z,19.9
2022-08-20T03:09:21.200Z,19.8
2022-08-20T03:10:21.800Z,19.9
2022-08-20T03:11:23.391Z,19.8
2022-08-20T03:12:23.991Z,19.8
2022-08-20T03:13:24.607Z,19.8
2022-08-20T03:14:25.201Z,19.8
2022-08-20T03:15:25.803Z,19.7
2022-08-20T03:16:26.401Z,19.7
2022-08-20T03:17:27.457Z,19.8
2022-08-20T03:18:28.056Z,19.8
2022-08-20T03:19:28.656Z,19.8
2022-08-20T03:20:29.253Z,19.6
2022-08-20T03:21:29.852Z,19.7
2022-08-20T03:22:30.452Z,19.7
2022-08-20T03:23:31.048Z,19.8
2022-08-20T03:24:31.645Z,19.7
2022-08-20T03:25:32.244Z,19.7
2022-08-20T03:26:32.842Z,19.7
2022-08-20T03:27:36.444Z,19.8
2022-08-20T03:28:35.040Z,19.7
2022-08-20T03:29:35.634Z,19.8
2022-08-20T03:30:36.228Z,19.8
2022-08-20T03:31:36.831Z,19.8
2022-08-20T03:32:37.446Z,19.7
2022-08-20T03:33:38.044Z,19.6
2022-08-20T03:34:39.634Z,19.8
2022-08-20T03:35:40.232Z,19.8
2022-08-20T03:36:40.830Z,19.8
2022-08-20T03:37:42.173Z,19.7
2022-08-20T03:38:43.018Z,19.8
2022-08-20T03:39:43.648Z,19.8
2022-08-20T03:40:44.224Z,19.7
2022-08-20T03:41:44.823Z,19.8
2022-08-20T03:42:45.419Z,19.7
2022-08-20T03:43:46.018Z,19.7
2022-08-20T03:44:46.618Z,19.7
2022-08-20T03:45:47.216Z,19.8
2022-08-20T03:46:47.817Z,19.7
2022-08-20T03:47:48.414Z,19.8
2022-08-20T03:48:49.019Z,19.6
2022-08-20T03:49:50.602Z,19.6
2022-08-20T03:50:51.202Z,19.6
2022-08-20T03:51:57.463Z,19.6
2022-08-20T03:52:53.390Z,19.6
2022-08-20T03:53:53.989Z,19.5
2022-08-20T03:54:54.588Z,19.6
2022-08-20T03:55:56.446Z,19.5
2022-08-20T03:56:56.779Z,19.6
2022-08-20T03:57:57.573Z,19.5
2022-08-20T03:58:58.221Z,19.5
2022-08-20T03:59:58.821Z,19.6
2022-08-20T04:00:59.465Z,19.6
2022-08-20T04:02:00.126Z,19.6
2022-08-20T04:03:00.776Z,19.6
2022-08-20T04:04:01.350Z,19.5
2022-08-20T04:05:01.947Z,19.5
2022-08-20T04:06:02.546Z,19.4
2022-08-20T04:07:03.143Z,19.6
2022-08-20T04:08:03.751Z,19.5
2022-08-20T04:09:04.343Z,19.5
2022-08-20T04:10:04.945Z,19.5
2022-08-20T04:11:05.545Z,19.5
2022-08-20T04:12:06.145Z,19.5
2022-08-20T04:13:06.745Z,19.5
2022-08-20T04:14:07.732Z,19.5
2022-08-20T04:15:09.327Z,19.5
2022-08-20T04:16:13.467Z,19.5
2022-08-20T04:17:12.515Z,19.5
2022-08-20T04:18:13.351Z,19.4
2022-08-20T04:19:13.952Z,19.5
2022-08-20T04:20:14.556Z,19.5
2022-08-20T04:21:15.156Z,19.4
2022-08-20T04:22:15.760Z,19.4
2022-08-20T04:23:16.381Z,19.5
2022-08-20T04:24:21.942Z,19.3
2022-08-20T04:25:18.578Z,19.5
2022-08-20T04:26:20.173Z,19.4
2022-08-20T04:27:20.773Z,19.5
2022-08-20T04:28:21.376Z,19.4
2022-08-20T04:29:21.978Z,19.5
2022-08-20T04:30:22.578Z,19.4
2022-08-20T04:31:25.042Z,19.5
2022-08-20T04:32:24.773Z,19.4
2022-08-20T04:33:33.795Z,19.4
2022-08-20T04:34:25.989Z,19.5
2022-08-20T04:35:26.593Z,19.4
2022-08-20T04:36:27.198Z,19.4
2022-08-20T04:37:27.801Z,19.4
2022-08-20T04:38:50.662Z,19.5
2022-08-20T04:39:29.998Z,19.4
2022-08-20T04:40:30.600Z,19.4
2022-08-20T04:41:31.204Z,19.4
2022-08-20T04:42:31.806Z,19.4
2022-08-20T04:43:33.158Z,19.4
2022-08-20T04:44:33.760Z,19.4
2022-08-20T04:45:34.363Z,19.4
2022-08-20T04:46:34.984Z,19.4
2022-08-20T04:47:35.585Z,19.3
2022-08-20T04:48:36.186Z,19.4
2022-08-20T04:49:37.122Z,19.4
2022-08-20T04:50:37.727Z,19.3
2022-08-20T04:51:38.349Z,19.5
2022-08-20T04:52:38.955Z,19.5
2022-08-20T04:53:39.573Z,19.4
2022-08-20T04:54:40.177Z,19.3
2022-08-20T04:55:40.783Z,19.5
2022-08-20T04:56:41.381Z,19.4
2022-08-20T04:57:41.983Z,19.3
2022-08-20T04:58:42.584Z,19.4
2022-08-20T04:59:43.189Z,19.5
2022-08-20T05:00:43.798Z,19.3
2022-08-20T05:01:44.396Z,19.4
2022-08-20T05:02:44.997Z,19.4
2022-08-20T05:03:45.602Z,19.4
2022-08-20T05:04:46.203Z,19.4
2022-08-20T05:05:46.806Z,19.4
2022-08-20T05:06:47.407Z,19.4
2022-08-20T05:07:48.009Z,19.3
2022-08-20T05:08:48.611Z,19.4
2022-08-20T05:09:49.212Z,19.3
2022-08-20T05:10:49.821Z,19.3
2022-08-20T05:11:51.411Z,19.3
2022-08-20T05:12:56.564Z,19.3
2022-08-20T05:13:53.609Z,19.3
2022-08-20T05:14:54.232Z,19.3
2022-08-20T05:15:54.834Z,19.2
2022-08-20T05:16:55.437Z,19.3
2022-08-20T05:17:56.174Z,19.3
2022-08-20T05:18:56.824Z,19.2
2022-08-20T05:19:57.415Z,19.3
2022-08-20T05:20:58.032Z,19.3
2022-08-20T05:21:58.616Z,19.2
2022-08-20T05:22:59.707Z,19.2
2022-08-20T05:24:00.308Z,19.2
2022-08-20T05:25:00.910Z,19.3
2022-08-20T05:26:01.514Z,19.2
2022-08-20T05:27:03.110Z,19.2
2022-08-20T05:28:03.733Z,19.1
2022-08-20T05:29:04.338Z,19.1
2022-08-20T05:30:04.938Z,19.1
2022-08-20T05:31:05.558Z,19.2
2022-08-20T05:32:06.164Z,19.1
2022-08-20T05:33:06.767Z,19.2
2022-08-20T05:34:07.373Z,19.1
2022-08-20T05:35:07.974Z,19.2
2022-08-20T05:36:08.580Z,19.1
2022-08-20T05:37:09.182Z,19.2
2022-08-20T05:38:09.788Z,19.2
2022-08-20T05:39:10.434Z,19.1
2022-08-20T05:40:11.070Z,19.2
2022-08-20T05:41:11.668Z,19.2
2022-08-20T05:42:13.265Z,19.1
2022-08-20T05:43:13.869Z,19.2
2022-08-20T05:44:14.477Z,19.2
2022-08-20T05:45:15.097Z,19.1
2022-08-20T05:46:15.700Z,19.1
2022-08-20T05:47:16.303Z,19.1
2022-08-20T05:48:16.911Z,19.1
2022-08-20T05:49:17.532Z,19.3
2022-08-20T05:50:20.646Z,19.2
2022-08-20T05:51:19.735Z,19.3
2022-08-20T05:52:20.337Z,19.2
2022-08-20T05:53:20.941Z,19.2
2022-08-20T05:54:21.545Z,19.2
2022-08-20T05:55:22.148Z,19.2
2022-08-20T05:56:26.872Z,19.2
2022-08-20T05:57:24.349Z,19.2
2022-08-20T05:58:24.955Z,19.2
2022-08-20T05:59:25.559Z,19.2
2022-08-20T06:00:26.163Z,19.3
2022-08-20T06:01:26.822Z,19.3
2022-08-20T06:02:27.378Z,19.3
2022-08-20T06:03:27.982Z,19.3
2022-08-20T06:04:28.743Z,19.3
2022-08-20T06:05:29.324Z,19.3
2022-08-20T06:06:45.143Z,19.3
2022-08-20T06:07:31.532Z,19.3
2022-08-20T06:08:32.155Z,19.3
2022-08-20T06:09:32.942Z,19.2
2022-08-20T06:10:33.549Z,19.2
2022-08-20T06:11:37.240Z,19.2
2022-08-20T06:12:35.750Z,19.3
2022-08-20T06:13:36.360Z,19.2
2022-08-20T06:14:36.978Z,19.3
2022-08-20T06:15:37.581Z,19.3
2022-08-20T06:16:38.186Z,19.3
2022-08-20T06:17:39.629Z,19.3
2022-08-20T06:18:39.798Z,19.3
2022-08-20T06:19:40.391Z,19.3
2022-08-20T06:20:41.990Z,19.4
2022-08-20T06:21:42.611Z,19.5
2022-08-20T06:22:43.217Z,19.4
2022-08-20T06:23:57.738Z,19.4
2022-08-20T06:24:45.422Z,19.4
2022-08-20T06:25:46.049Z,19.4
2022-08-20T06:26:46.655Z,19.5
2022-08-20T06:27:47.260Z,19.6
2022-08-20T06:28:47.864Z,19.6
2022-08-20T06:29:49.466Z,19.6
2022-08-20T06:30:50.068Z,19.6
2022-08-20T06:31:50.671Z,19.6
2022-08-20T06:32:51.275Z,19.6
2022-08-20T06:33:51.903Z,19.6
2022-08-20T06:34:52.507Z,19.6
2022-08-20T06:35:53.179Z,19.7
2022-08-20T06:36:53.797Z,19.6
2022-08-20T06:37:54.402Z,19.6
2022-08-20T06:38:55.012Z,19.4
2022-08-20T06:39:55.691Z,19.5
2022-08-20T06:40:56.311Z,19.4
2022-08-20T06:41:56.913Z,19.3
2022-08-20T06:42:57.516Z,19.3
2022-08-20T06:43:58.122Z,19.3
2022-08-20T06:44:58.745Z,19.4
2022-08-20T06:45:59.333Z,19.4
2022-08-20T06:46:59.955Z,19.4
2022-08-20T06:48:00.557Z,19.5
2022-08-20T06:49:01.161Z,19.5
2022-08-20T06:50:01.762Z,19.5
2022-08-20T06:51:02.366Z,19.4
2022-08-20T06:52:02.972Z,19.5
2022-08-20T06:53:04.862Z,19.4
2022-08-20T06:54:05.531Z,19.3
2022-08-20T06:55:06.134Z,19.4
2022-08-20T06:56:06.738Z,19.3
2022-08-20T06:57:07.343Z,19.3
2022-08-20T06:58:07.945Z,19.3
2022-08-20T06:59:09.571Z,19.3
2022-08-20T07:00:10.166Z,19.4
2022-08-20T07:01:11.392Z,19.4
2022-08-20T07:02:12.286Z,19.4
2022-08-20T07:03:12.890Z,19.4
2022-08-20T07:04:13.496Z,19.5
2022-08-20T07:05:14.099Z,19.4
2022-08-20T07:06:14.700Z,19.5
2022-08-20T07:07:15.304Z,19.4
2022-08-20T07:08:15.907Z,19.4
2022-08-20T07:09:16.512Z,19.5
2022-08-20T07:10:17.115Z,19.4
2022-08-20T07:11:17.722Z,19.4
2022-08-20T07:12:18.325Z,19.4
2022-08-20T07:13:18.929Z,19.4
2022-08-20T07:14:19.532Z,19.4
2022-08-20T07:15:20.155Z,19.4
2022-08-20T07:16:20.762Z,19.5
2022-08-20T07:17:24.102Z,19.3
2022-08-20T07:18:28.209Z,19.5
2022-08-20T07:19:24.559Z,19.5
2022-08-20T07:20:25.161Z,19.4
2022-08-20T07:21:25.765Z,19.4
2022-08-20T07:22:26.369Z,19.4
2022-08-20T07:23:26.975Z,19.5
2022-08-20T07:24:32.849Z,19.5
2022-08-20T07:25:29.174Z,19.5
2022-08-20T07:26:29.778Z,19.5
2022-08-20T07:27:30.384Z,19.4
2022-08-20T07:28:30.987Z,19.6
2022-08-20T07:29:31.592Z,19.6
2022-08-20T07:30:32.217Z,19.7
2022-08-20T07:31:34.913Z,19.7
2022-08-20T07:32:36.902Z,19.7
2022-08-20T07:33:37.009Z,19.5
2022-08-20T07:34:37.616Z,19.6
2022-08-20T07:35:39.214Z,19.5
2022-08-20T07:36:39.818Z,19.5
2022-08-20T07:37:40.423Z,19.4
2022-08-20T07:38:41.028Z,19.6
2022-08-20T07:39:41.644Z,19.8
2022-08-20T07:40:42.240Z,19.8
2022-08-20T07:41:42.843Z,20.0
2022-08-20T07:42:44.439Z,20.1
2022-08-20T07:43:45.046Z,20.2
2022-08-20T07:44:45.650Z,20.3
2022-08-20T07:45:49.750Z,20.4
2022-08-20T07:46:47.854Z,20.5
2022-08-20T07:47:48.460Z,20.5
2022-08-20T07:48:49.060Z,20.6
2022-08-20T07:49:49.663Z,20.7
2022-08-20T07:50:50.265Z,20.5
2022-08-20T07:51:50.975Z,20.6
2022-08-20T07:52:51.590Z,20.7
2022-08-20T07:53:52.184Z,20.7
2022-08-20T07:54:52.784Z,21.0
2022-08-20T07:55:58.756Z,21.0
2022-08-20T07:56:54.980Z,21.0
2022-08-20T07:57:55.590Z,20.9
2022-08-20T07:58:56.188Z,21.0
2022-08-20T07:59:56.793Z,21.2
2022-08-20T08:00:57.441Z,21.3
2022-08-20T08:01:58.991Z,21.6
2022-08-20T08:02:59.596Z,21.5
2022-08-20T08:04:00.201Z,21.5
2022-08-20T08:05:00.802Z,21.4
2022-08-20T08:06:01.677Z,21.5
2022-08-20T08:07:02.300Z,21.5
2022-08-20T08:08:06.916Z,21.3
2022-08-20T08:09:04.500Z,21.3
2022-08-20T08:10:05.122Z,21.2
2022-08-20T08:11:05.743Z,21.3
2022-08-20T08:12:06.349Z,21.3
2022-08-20T08:13:06.950Z,21.5
2022-08-20T08:14:07.552Z,21.5
2022-08-20T08:15:08.156Z,21.5
2022-08-20T08:16:08.777Z,21.5
2022-08-20T08:17:09.378Z,21.3
2022-08-20T08:18:09.980Z,21.2
2022-08-20T08:19:10.584Z,21.1
2022-08-20T08:20:11.185Z,21.3
2022-08-20T08:21:11.788Z,21.4
2022-08-20T08:22:12.392Z,21.4
2022-08-20T08:23:25.472Z,21.1
2022-08-20T08:24:17.944Z,21.1
2022-08-20T08:25:15.210Z,21.1
2022-08-20T08:26:18.894Z,21.1
2022-08-20T08:27:17.409Z,21.2
2022-08-20T08:28:18.013Z,21.2
2022-08-20T08:29:18.614Z,21.2
2022-08-20T08:30:19.219Z,21.2
2022-08-20T08:31:19.831Z,20.8
2022-08-20T08:32:20.420Z,20.6
2022-08-20T08:33:21.023Z,20.6
2022-08-20T08:34:22.466Z,20.5
2022-08-20T08:35:23.067Z,20.4
2022-08-20T08:36:23.671Z,20.4
2022-08-20T08:37:26.909Z,20.4
2022-08-20T08:38:25.870Z,20.3
2022-08-20T08:39:26.471Z,20.4
2022-08-20T08:40:28.069Z,20.4
2022-08-20T08:41:28.672Z,20.4
2022-08-20T08:42:29.275Z,20.4
2022-08-20T08:43:31.743Z,20.4
2022-08-20T08:44:31.496Z,20.1
2022-08-20T08:45:32.098Z,20.1
2022-08-20T08:46:32.704Z,20.1
2022-08-20T08:47:33.328Z,20.2
2022-08-20T08:48:33.928Z,20.2
2022-08-20T08:49:38.194Z,20.1
2022-08-20T08:50:54.212Z,20.0
2022-08-20T08:51:37.722Z,19.9
2022-08-20T08:52:38.327Z,19.9
2022-08-20T08:53:38.931Z,19.8
2022-08-20T08:54:39.536Z,19.8
2022-08-20T08:55:40.137Z,20.0
2022-08-20T08:56:40.742Z,19.9
2022-08-20T08:57:41.345Z,19.9
2022-08-20T08:58:41.946Z,19.7
2022-08-20T08:59:52.517Z,19.4
2022-08-20T09:00:48.779Z,19.5
2022-08-20T09:01:54.794Z,19.7
2022-08-20T09:02:47.402Z,19.9
2022-08-20T09:03:47.973Z,20.0
2022-08-20T09:04:48.577Z,20.0
2022-08-20T09:05:49.179Z,20.1
2022-08-20T09:06:52.276Z,20.0
2022-08-20T09:07:51.379Z,19.9
2022-08-20T09:08:52.976Z,20.2
2022-08-20T09:09:53.580Z,20.2
2022-08-20T09:10:54.184Z,20.5
2022-08-20T09:11:54.785Z,20.9
2022-08-20T09:12:55.390Z,21.3
2022-08-20T09:13:55.998Z,21.8
2022-08-20T09:14:56.603Z,22.2
2022-08-20T09:15:57.202Z,22.0
2022-08-20T09:16:57.807Z,22.0
2022-08-20T09:17:58.588Z,22.1
2022-08-20T09:19:00.006Z,22.3
2022-08-20T09:20:00.612Z,22.5
2022-08-20T09:21:01.216Z,22.5
2022-08-20T09:22:01.819Z,22.7
2022-08-20T09:23:02.421Z,22.9
2022-08-20T09:24:03.025Z,22.8
2022-08-20T09:25:03.630Z,22.8
2022-08-20T09:26:04.233Z,22.7
2022-08-20T09:27:04.836Z,22.4
2022-08-20T09:28:05.440Z,22.4
2022-08-20T09:29:06.042Z,22.3
2022-08-20T09:30:06.829Z,22.3
2022-08-20T09:31:07.429Z,22.3
2022-08-20T09:32:08.037Z,21.9
2022-08-20T09:33:09.633Z,22.0
2022-08-20T09:34:10.256Z,22.1
2022-08-20T09:35:10.857Z,22.1
2022-08-20T09:36:29.238Z,22.2
2022-08-20T09:37:13.065Z,22.3
2022-08-20T09:38:13.663Z,22.5
2022-08-20T09:39:14.266Z,22.6
2022-08-20T09:40:14.959Z,22.4
2022-08-20T09:41:16.466Z,22.5
2022-08-20T09:42:17.076Z,22.6
2022-08-20T09:43:17.676Z,22.9
2022-08-20T09:44:18.279Z,23.0
2022-08-20T09:45:18.881Z,22.9
2022-08-20T09:46:19.484Z,22.8
2022-08-20T09:47:21.078Z,22.8
2022-08-20T09:48:21.682Z,22.5
2022-08-20T09:49:23.278Z,22.5
2022-08-20T09:50:24.418Z,22.3
2022-08-20T09:51:25.032Z,22.3
2022-08-20T09:52:25.638Z,22.3
2022-08-20T09:53:26.240Z,22.3
2022-08-20T09:54:26.844Z,22.3
2022-08-20T09:55:28.442Z,22.1
2022-08-20T09:56:29.045Z,22.0
2022-08-20T09:57:29.650Z,21.8
2022-08-20T09:58:30.252Z,21.9
2022-08-20T09:59:30.855Z,21.9
2022-08-20T10:00:31.474Z,21.9
2022-08-20T10:01:32.104Z,22.2
2022-08-20T10:02:32.663Z,22.5
2022-08-20T10:03:33.266Z,22.6
2022-08-20T10:04:34.862Z,22.6
2022-08-20T10:05:35.486Z,22.5
2022-08-20T10:06:37.890Z,22.6
2022-08-20T10:07:37.686Z,22.4
2022-08-20T10:08:38.289Z,22.5
2022-08-20T10:09:39.375Z,22.5
2022-08-20T10:10:40.486Z,22.4
2022-08-20T10:11:41.144Z,22.3
2022-08-20T10:12:41.697Z,22.1
2022-08-20T10:13:42.295Z,21.9
2022-08-20T10:14:42.897Z,21.8
2022-08-20T10:15:43.499Z,21.7
2022-08-20T10:16:44.968Z,21.7
2022-08-20T10:17:45.529Z,21.7
2022-08-20T10:18:46.134Z,21.6
2022-08-20T10:19:46.733Z,21.5
2022-08-20T10:20:47.336Z,21.5
2022-08-20T10:21:47.936Z,21.6
2022-08-20T10:22:48.540Z,21.6
2022-08-20T10:23:49.141Z,21.6
2022-08-20T10:24:49.764Z,21.8
2022-08-20T10:25:50.364Z,21.8
2022-08-20T10:26:50.970Z,21.6
2022-08-20T10:27:51.573Z,21.6
2022-08-20T10:28:52.180Z,21.7
2022-08-20T10:29:52.784Z,21.9
2022-08-20T10:30:53.389Z,21.8
2022-08-20T10:31:53.992Z,21.9
2022-08-20T10:32:54.597Z,22.0
2022-08-20T10:33:55.202Z,22.0
2022-08-20T10:34:55.807Z,22.1
2022-08-20T10:35:59.856Z,22.3
2022-08-20T10:36:58.009Z,22.2
2022-08-20T10:37:58.654Z,22.4
2022-08-20T10:38:59.227Z,22.1
2022-08-20T10:39:59.892Z,22.1
2022-08-20T10:41:00.456Z,22.1
2022-08-20T10:42:01.060Z,22.2
2022-08-20T10:43:01.665Z,22.3
2022-08-20T10:44:02.272Z,22.1
2022-08-20T10:45:02.872Z,22.3
2022-08-20T10:46:03.474Z,22.6
2022-08-20T10:47:04.079Z,22.6
2022-08-20T10:48:04.682Z,22.4
2022-08-20T10:49:05.297Z,22.4
2022-08-20T10:50:05.893Z,22.6
2022-08-20T10:51:06.496Z,22.7
2022-08-20T10:52:07.097Z,22.5
2022-08-20T10:53:08.694Z,22.5
2022-08-20T10:54:12.715Z,22.6
2022-08-20T10:55:10.900Z,22.7
2022-08-20T10:56:15.421Z,22.8
2022-08-20T10:57:13.094Z,22.9
2022-08-20T10:58:13.704Z,22.8
2022-08-20T10:59:14.326Z,22.8
2022-08-20T11:00:14.930Z,23.0
2022-08-20T11:01:32.557Z,22.9
2022-08-20T11:02:17.211Z,23.0
2022-08-20T11:03:17.765Z,22.9
2022-08-20T11:04:18.369Z,22.6
2022-08-20T11:05:18.975Z,22.8
2022-08-20T11:06:19.578Z,22.9
2022-08-20T11:07:20.191Z,23.1
2022-08-20T11:08:33.817Z,23.4
2022-08-20T11:09:22.387Z,23.3
2022-08-20T11:10:22.992Z,23.5
2022-08-20T11:11:23.600Z,23.5
2022-08-20T11:12:24.223Z,23.6
2022-08-20T11:13:24.828Z,23.7
2022-08-20T11:14:25.435Z,23.9
2022-08-20T11:15:26.043Z,24.2
2022-08-20T11:16:26.664Z,24.2
2022-08-20T11:17:27.270Z,24.3
2022-08-20T11:18:27.874Z,24.4
2022-08-20T11:19:28.481Z,24.5
2022-08-20T11:20:29.084Z,24.5
2022-08-20T11:21:29.687Z,24.2
2022-08-20T11:22:30.293Z,23.9
2022-08-20T11:23:30.897Z,23.6
2022-08-20T11:24:32.493Z,23.5
2022-08-20T11:25:33.099Z,23.6
2022-08-20T11:26:33.702Z,23.5
2022-08-20T11:27:34.307Z,23.6
2022-08-20T11:28:34.912Z,23.6
2022-08-20T11:29:35.517Z,23.8
2022-08-20T11:30:36.143Z,24.1
2022-08-20T11:31:36.751Z,24.2
2022-08-20T11:32:37.353Z,24.5
2022-08-20T11:33:37.961Z,24.7
2022-08-20T11:34:38.585Z,24.8
2022-08-20T11:35:48.663Z,24.9
2022-08-20T11:36:40.788Z,24.9
2022-08-20T11:37:41.394Z,24.9
2022-08-20T11:38:41.999Z,24.9
2022-08-20T11:39:42.639Z,24.7
2022-08-20T11:40:43.203Z,24.7
2022-08-20T11:41:43.832Z,24.4
2022-08-20T11:43:12.615Z,24.2
2022-08-20T11:44:04.681Z,24.3
2022-08-20T11:44:48.595Z,24.3
2022-08-20T11:45:49.201Z,24.1
2022-08-20T11:46:49.803Z,24.1
2022-08-20T11:47:50.408Z,23.9
2022-08-20T11:48:51.013Z,23.8
2022-08-20T11:49:51.619Z,23.9
2022-08-20T11:50:52.222Z,23.8
2022-08-20T11:51:52.825Z,24.0
2022-08-20T11:52:53.425Z,23.6
2022-08-20T11:53:54.029Z,23.4
2022-08-20T11:54:54.873Z,23.3
2022-08-20T11:55:55.251Z,23.5
2022-08-20T11:56:56.101Z,23.4
2022-08-20T11:57:56.775Z,23.5
2022-08-20T11:58:58.300Z,23.6
2022-08-20T11:59:58.907Z,23.6
2022-08-20T12:00:59.511Z,23.8
2022-08-20T12:02:02.957Z,23.9
2022-08-20T12:03:01.826Z,24.1
2022-08-20T12:04:02.490Z,24.1
2022-08-20T12:05:03.095Z,24.0
2022-08-20T12:06:03.694Z,23.9
2022-08-20T12:07:04.297Z,23.8
2022-08-20T12:08:04.906Z,23.7
2022-08-20T12:09:05.501Z,23.6
2022-08-20T12:10:06.123Z,23.5
2022-08-20T12:11:06.722Z,23.4
2022-08-20T12:12:07.325Z,23.4
2022-08-20T12:13:07.926Z,23.3
2022-08-20T12:14:08.530Z,23.4
2022-08-20T12:15:09.130Z,23.3
2022-08-20T12:16:09.733Z,23.3
2022-08-20T12:17:10.357Z,23.4
2022-08-20T12:18:10.962Z,23.5
2022-08-20T12:19:11.572Z,23.8
2022-08-20T12:20:12.174Z,23.6
2022-08-20T12:21:12.784Z,23.8
2022-08-20T12:22:24.530Z,23.6
2022-08-20T12:23:14.980Z,23.7
2022-08-20T12:24:15.586Z,24.2
2022-08-20T12:25:16.193Z,24.0
2022-08-20T12:26:16.823Z,23.8
2022-08-20T12:27:17.397Z,24.0
2022-08-20T12:28:18.003Z,24.3
2022-08-20T12:29:19.600Z,24.3
2022-08-20T12:30:20.203Z,24.2
2022-08-20T12:31:20.817Z,24.3
2022-08-20T12:32:21.414Z,24.6
2022-08-20T12:33:22.021Z,24.5
2022-08-20T12:34:22.624Z,24.3
2022-08-20T12:35:23.228Z,24.5
2022-08-20T12:36:23.835Z,24.8
2022-08-20T12:37:24.438Z,25.2
2022-08-20T12:38:25.044Z,25.5
2022-08-20T12:39:25.649Z,25.5
2022-08-20T12:40:32.299Z,25.6
2022-08-20T12:41:27.850Z,25.2
2022-08-20T12:42:28.454Z,24.7
2022-08-20T12:43:29.058Z,24.7
2022-08-20T12:44:29.665Z,24.5
2022-08-20T12:45:30.270Z,24.2
2022-08-20T12:46:30.868Z,23.9
2022-08-20T12:47:31.468Z,23.6
2022-08-20T12:48:32.071Z,23.6
2022-08-20T12:49:32.673Z,23.6
2022-08-20T12:50:33.278Z,23.7
2022-08-20T12:51:33.881Z,24.0
2022-08-20T12:52:34.487Z,24.0
2022-08-20T12:53:35.090Z,24.2
2022-08-20T12:54:35.698Z,24.4
2022-08-20T12:55:36.302Z,24.3
2022-08-20T12:56:36.908Z,23.8
2022-08-20T12:57:37.513Z,23.8
2022-08-20T12:58:38.119Z,24.2
2022-08-20T12:59:38.722Z,24.5
2022-08-20T13:00:39.327Z,24.6
2022-08-20T13:01:40.985Z,24.6
2022-08-20T13:02:41.566Z,24.8
2022-08-20T13:03:45.205Z,24.6
2022-08-20T13:04:43.769Z,24.4
2022-08-20T13:05:44.394Z,24.3
2022-08-20T13:06:44.999Z,24.0
2022-08-20T13:07:46.001Z,23.8
2022-08-20T13:08:46.606Z,23.8
2022-08-20T13:09:47.210Z,23.8
2022-08-20T13:10:47.815Z,23.8
2022-08-20T13:11:48.417Z,23.9
2022-08-20T13:12:49.081Z,23.8
2022-08-20T13:13:49.648Z,23.8
2022-08-20T13:14:50.261Z,23.9
2022-08-20T13:15:50.904Z,24.0
2022-08-20T13:16:51.533Z,24.3
2022-08-20T13:17:53.133Z,24.4
2022-08-20T13:18:53.738Z,24.6
2022-08-20T13:19:54.350Z,24.9
2022-08-20T13:20:54.947Z,24.8
2022-08-20T13:21:55.551Z,24.9
2022-08-20T13:22:56.264Z,25.1
2022-08-20T13:23:56.880Z,25.0
2022-08-20T13:24:57.486Z,24.9
2022-08-20T13:25:58.088Z,24.9
2022-08-20T13:26:58.696Z,24.8
2022-08-20T13:27:59.299Z,24.8